Time;durP1;ratioP1;P1;durP2;ratioP2;P2;SDS_P1;SDS_P2;PMS_P1;PMS_P2;Temp;Humidity;BMP_temperature;BMP_pressure;BME280_temperature;BME280_humidity;BME280_pressure;Samples;Min_cycle;Max_cycle;Signal;HPM_P1;HPM_P2
2022/08/11 00:02:30;;;;;;;0.85;0.43;;;30.70;30.40;;;;;;5072560;28;20134;-65
2022/08/11 00:05:01;;;;;;;6.85;0.40;;;30.70;30.50;;;;;;5081937;28;20385;-65
2022/08/11 00:07:29;;;;;;;3.22;0.30;;;30.70;30.40;;;;;;5081545;28;20142;-66
2022/08/11 00:09:56;;;;;;;2.30;0.60;;;30.60;30.40;;;;;;5087069;28;20040;-66
2022/08/11 00:12:24;;;;;;;0.98;0.50;;;30.60;30.60;;;;;;5089477;28;20390;-65
2022/08/11 00:14:58;;;;;;;1.95;0.43;;;30.50;30.50;;;;;;5098328;28;20039;-65
2022/08/11 00:17:30;;;;;;;1.05;0.75;;;30.50;30.70;;;;;;5068649;28;20478;-65
2022/08/11 00:20:05;;;;;;;6.07;0.68;;;30.50;30.90;;;;;;5087006;28;20087;-65
2022/08/11 00:22:33;;;;;;;2.75;0.60;;;30.40;30.90;;;;;;5090834;28;20043;-65
2022/08/11 00:25:09;;;;;;;1.25;0.45;;;30.40;31.00;;;;;;5100890;28;20035;-65
2022/08/11 00:27:39;;;;;;;6.38;1.27;;;30.40;31.10;;;;;;5090831;28;20040;-66
2022/08/11 00:30:10;;;;;;;0.70;0.68;;;30.30;31.20;;;;;;5090813;28;20120;-66
2022/08/11 00:32:39;;;;;;;1.40;0.52;;;30.30;31.30;;;;;;5089249;28;20138;-66
2022/08/11 00:35:10;;;;;;;1.60;1.40;;;30.30;31.30;;;;;;5088701;28;20036;-65
2022/08/11 00:37:39;;;;;;;0.50;0.20;;;30.20;31.30;;;;;;5094966;28;20056;-65
2022/08/11 00:40:15;;;;;;;1.27;0.22;;;30.20;31.50;;;;;;5092560;28;20040;-66
2022/08/11 00:42:50;;;;;;;1.88;0.40;;;30.20;31.60;;;;;;5090407;28;20036;-66
2022/08/11 00:45:24;;;;;;;1.42;0.40;;;30.10;31.70;;;;;;5090233;28;20126;-66
2022/08/11 00:48:03;;;;;;;1.50;0.55;;;30.10;31.70;;;;;;5055156;28;20050;-65
2022/08/11 00:50:44;;;;;;;1.50;0.65;;;30.10;31.80;;;;;;5082534;28;20075;-65
2022/08/11 00:53:38;;;;;;;0.90;0.70;;;30.00;31.90;;;;;;5098129;28;20051;-65
2022/08/11 00:56:38;;;;;;;1.30;0.50;;;30.00;32.00;;;;;;5091026;28;20036;-65
2022/08/11 00:59:31;;;;;;;2.70;0.45;;;29.90;32.10;;;;;;5099076;28;20075;-65
2022/08/11 01:02:13;;;;;;;2.10;0.68;;;29.90;32.20;;;;;;5091575;28;20498;-66
2022/08/11 01:05:18;;;;;;;7.13;0.50;;;29.80;32.30;;;;;;5090172;28;20042;-66
2022/08/11 01:08:24;;;;;;;0.68;0.50;;;29.80;32.30;;;;;;5084025;28;20535;-65
2022/08/11 01:11:30;;;;;;;3.05;0.57;;;29.80;32.40;;;;;;5089952;28;20093;-66
2022/08/11 01:14:42;;;;;;;6.63;0.40;;;29.70;32.60;;;;;;5087582;28;20123;-67
2022/08/11 01:17:48;;;;;;;7.85;0.60;;;29.60;32.60;;;;;;5089385;28;20074;-66
2022/08/11 01:20:40;;;;;;;1.13;0.40;;;29.60;32.70;;;;;;5087746;28;20040;-65
2022/08/11 01:23:40;;;;;;;2.17;0.73;;;29.60;32.90;;;;;;5103096;28;20044;-65
2022/08/11 01:27:01;;;;;;;6.60;1.27;;;29.50;32.90;;;;;;5089678;28;20071;-65
2022/08/11 01:30:07;;;;;;;1.70;0.70;;;29.50;33.00;;;;;;5100488;28;20132;-65
2022/08/11 01:33:10;;;;;;;1.23;0.63;;;29.50;33.00;;;;;;5100479;28;20159;-65
2022/08/11 01:36:06;;;;;;;1.08;0.32;;;29.50;33.20;;;;;;5073935;28;20444;-65
2022/08/11 01:39:13;;;;;;;4.00;1.20;;;29.40;33.30;;;;;;5076112;28;20790;-65
2022/08/11 01:45:21;;;;;;;1.65;0.57;;;29.40;33.40;;;;;;5026182;28;20060;-68
2022/08/11 01:47:59;;;;;;;3.70;0.50;;;29.30;33.40;;;;;;5026446;28;20115;-66
2022/08/11 01:50:53;;;;;;;1.95;0.30;;;29.30;33.60;;;;;;5009898;28;20038;-66
2022/08/11 01:53:30;;;;;;;0.60;0.40;;;29.30;33.50;;;;;;5022949;28;20265;-67
2022/08/11 01:56:22;;;;;;;1.13;0.38;;;29.20;33.60;;;;;;5028026;28;20140;-66
2022/08/11 01:59:02;;;;;;;2.65;0.35;;;29.20;33.60;;;;;;5026065;28;20064;-66
2022/08/11 02:01:39;;;;;;;1.73;0.57;;;29.20;33.70;;;;;;5009849;28;20129;-66
2022/08/11 02:04:18;;;;;;;0.30;0.30;;;29.20;33.70;;;;;;5026146;28;20041;-64
2022/08/11 02:06:55;;;;;;;2.83;0.52;;;29.20;33.80;;;;;;5014675;28;20073;-64
2022/08/11 02:09:45;;;;;;;1.67;0.85;;;29.10;33.90;;;;;;5023613;28;20575;-65
2022/08/11 02:12:20;;;;;;;0.30;0.30;;;29.10;33.80;;;;;;5040637;28;20046;-65
2022/08/11 02:15:02;;;;;;;0.95;0.35;;;29.10;33.90;;;;;;5014655;28;20042;-65
2022/08/11 02:17:47;;;;;;;4.20;0.60;;;29.10;33.90;;;;;;5030733;28;20645;-65
2022/08/11 02:23:40;;;;;;;5.20;0.73;;;29.00;34.10;;;;;;5087301;28;20799;-65
2022/08/11 02:26:22;;;;;;;0.40;0.30;;;28.90;34.10;;;;;;5088553;28;20029;-65
2022/08/11 02:29:00;;;;;;;1.15;0.57;;;28.90;34.10;;;;;;5076910;28;20131;-65
2022/08/11 02:34:36;;;;;;;2.67;0.55;;;28.80;34.20;;;;;;5080509;28;20059;-64
2022/08/11 02:37:15;;;;;;;6.82;0.57;;;28.80;34.40;;;;;;5094609;28;20039;-65
2022/08/11 02:39:55;;;;;;;1.33;0.50;;;28.80;34.40;;;;;;5092294;28;20526;-65
2022/08/11 02:42:29;;;;;;;0.43;0.35;;;28.80;34.50;;;;;;5096606;28;20036;-65
2022/08/11 02:45:20;;;;;;;1.10;0.20;;;28.80;34.50;;;;;;5091103;28;20128;-65
2022/08/11 02:50:52;;;;;;;4.82;0.85;;;28.70;34.60;;;;;;4990455;28;20046;-67
2022/08/11 02:53:29;;;;;;;4.68;0.28;;;28.70;34.20;;;;;;4985657;28;20089;-65
2022/08/11 02:56:07;;;;;;;0.80;0.40;;;28.70;33.70;;;;;;4985843;28;20805;-64
2022/08/11 02:58:44;;;;;;;0.85;0.30;;;28.60;33.70;;;;;;4985461;28;20625;-64
2022/08/11 03:01:18;;;;;;;5.35;0.25;;;28.70;33.00;;;;;;4985656;28;20092;-64
2022/08/11 03:03:53;;;;;;;6.10;0.40;;;28.60;32.70;;;;;;4985552;28;20097;-66
2022/08/11 03:06:33;;;;;;;0.80;0.20;;;28.60;32.80;;;;;;4971110;28;20081;-66
2022/08/11 03:09:06;;;;;;;1.70;0.38;;;28.60;32.90;;;;;;4985477;28;20926;-63
2022/08/11 03:17:33;;;;;;;1.42;0.30;;;28.60;33.50;;;;;;4991969;28;20412;-64
2022/08/11 03:20:15;;;;;;;1.35;0.20;;;28.50;33.50;;;;;;4984819;28;20339;-65
2022/08/11 03:22:54;;;;;;;3.97;0.30;;;28.60;33.60;;;;;;4988034;28;20046;-67
2022/08/11 03:25:30;;;;;;;1.20;0.20;;;28.50;33.60;;;;;;5022539;28;20045;-64
2022/08/11 03:28:11;;;;;;;1.13;0.47;;;28.50;33.50;;;;;;5075553;28;20051;-65
2022/08/11 03:30:48;;;;;;;0.43;0.20;;;28.50;33.40;;;;;;5099429;28;20128;-65
2022/08/11 03:36:20;;;;;;;2.92;0.50;;;28.50;33.00;;;;;;5087524;28;20475;-70
2022/08/11 03:39:12;;;;;;;1.48;0.20;;;28.50;32.70;;;;;;5087555;28;20032;-71
2022/08/11 03:41:44;;;;;;;1.65;0.22;;;28.40;32.60;;;;;;5087065;28;20047;-71
2022/08/11 03:44:28;;;;;;;4.28;0.30;;;28.40;32.40;;;;;;5070863;28;20516;-70
2022/08/11 03:47:30;;;;;;;0.50;0.20;;;28.40;32.30;;;;;;5087611;28;20091;-71
2022/08/11 03:50:06;;;;;;;1.67;0.20;;;28.40;32.10;;;;;;5087109;28;20050;-68
2022/08/11 03:52:48;;;;;;;2.75;0.20;;;28.40;32.20;;;;;;5087226;28;20032;-68
2022/08/11 03:55:27;;;;;;;4.35;0.32;;;28.40;32.20;;;;;;5087089;28;20133;-68
2022/08/11 03:58:45;;;;;;;0.90;0.30;;;28.30;32.10;;;;;;5089247;28;20097;-71
2022/08/11 04:01:47;;;;;;;1.95;0.93;;;28.30;32.20;;;;;;5091200;28;20415;-68
2022/08/11 04:04:46;;;;;;;0.20;0.10;;;28.30;32.10;;;;;;5075167;28;20454;-70
2022/08/11 04:07:40;;;;;;;4.55;0.20;;;28.30;32.10;;;;;;5091289;28;20047;-69
2022/08/11 04:10:48;;;;;;;6.35;0.20;;;28.30;32.10;;;;;;5007636;28;20155;-69
2022/08/11 04:13:49;;;;;;;0.20;0.20;;;28.20;31.90;;;;;;5001195;28;20495;-68
2022/08/11 04:16:43;;;;;;;0.80;0.63;;;28.20;31.90;;;;;;5015124;28;20477;-68
2022/08/11 04:19:42;;;;;;;0.45;0.20;;;28.20;31.80;;;;;;5006260;28;20045;-69
2022/08/11 04:23:02;;;;;;;2.50;0.40;;;28.20;31.80;;;;;;5008223;28;20103;-69
2022/08/11 04:26:04;;;;;;;2.17;0.20;;;28.20;31.70;;;;;;4972793;28;20047;-68
2022/08/11 04:28:44;;;;;;;0.90;0.20;;;28.10;31.60;;;;;;4966326;28;20097;-68
2022/08/11 04:31:40;;;;;;;1.52;0.15;;;28.10;31.70;;;;;;4953040;28;20053;-68
2022/08/11 04:34:42;;;;;;;0.30;0.20;;;28.10;31.70;;;;;;4968148;28;20102;-70
2022/08/11 04:37:35;;;;;;;2.92;0.40;;;28.10;31.60;;;;;;4969171;28;20071;-68
2022/08/11 04:40:35;;;;;;;1.42;0.40;;;28.10;31.60;;;;;;4968543;28;20078;-68
2022/08/11 04:43:55;;;;;;;2.30;0.30;;;28.10;31.60;;;;;;4895890;29;20123;-70
2022/08/11 04:46:58;;;;;;;2.42;0.10;;;28.10;31.70;;;;;;4901199;29;20044;-70
2022/08/11 05:02:25;;;;;;;2.95;0.30;;;27.90;31.60;;;;;;5007615;28;20056;-66
2022/08/11 05:08:20;;;;;;;2.08;0.25;;;27.90;31.60;;;;;;5006959;28;20053;-70
2022/08/11 05:10:59;;;;;;;0.68;0.20;;;27.90;31.60;;;;;;5006794;28;20077;-71
2022/08/11 05:36:12;;;;;;;7.38;1.63;;;27.80;31.60;;;;;;5088882;28;20040;-67
2022/08/11 05:58:09;;;;;;;4.70;0.98;;;27.90;32.20;;;;;;5089022;28;20046;-71
2022/08/11 06:00:45;;;;;;;3.55;0.40;;;27.90;31.50;;;;;;5100911;28;20040;-69
2022/08/11 06:03:20;;;;;;;;;;;27.90;31.40;;;;;;5071590;28;20089;-71
2022/08/11 06:05:47;;;;;;;4.47;0.60;;;27.80;31.30;;;;;;5092638;28;20432;-68
2022/08/11 06:08:15;;;;;;;7.45;0.68;;;27.80;31.40;;;;;;5088820;28;20036;-69
2022/08/11 06:10:45;;;;;;;4.88;0.32;;;27.80;31.40;;;;;;5088757;28;20047;-70
2022/08/11 06:13:16;;;;;;;4.35;0.40;;;27.90;31.50;;;;;;5092593;28;20045;-70
2022/08/11 06:15:47;;;;;;;4.78;0.50;;;27.90;31.50;;;;;;5088598;28;20124;-70
2022/08/11 06:18:15;;;;;;;0.52;0.30;;;27.90;31.50;;;;;;5072370;28;20093;-69
2022/08/11 06:20:50;;;;;;;3.97;0.25;;;27.90;31.50;;;;;;5088043;28;20492;-71
2022/08/11 06:23:19;;;;;;;7.18;0.47;;;28.00;31.40;;;;;;5088572;28;20538;-67
2022/08/11 06:25:47;;;;;;;6.65;1.30;;;27.90;31.10;;;;;;5096472;28;20036;-67
2022/08/11 06:28:17;;;;;;;3.13;0.30;;;28.00;31.20;;;;;;5099984;28;20673;-69
2022/08/11 06:30:47;;;;;;;3.55;0.50;;;28.00;31.10;;;;;;5088116;28;20036;-70
2022/08/11 06:33:18;;;;;;;5.00;0.52;;;28.00;31.00;;;;;;5088111;28;20055;-69
2022/08/11 06:35:55;;;;;;;0.57;0.30;;;28.00;30.90;;;;;;5084479;28;20063;-69
2022/08/11 06:38:37;;;;;;;1.42;0.28;;;28.00;30.90;;;;;;5085860;28;20071;-69
2022/08/11 06:44:04;;;;;;;3.72;0.30;;;28.10;30.80;;;;;;5087921;28;20044;-71
2022/08/11 06:46:37;;;;;;;3.85;0.50;;;28.10;30.70;;;;;;5075192;28;20042;-71
2022/08/11 06:51:10;;;;;;;2.92;0.20;;;28.10;30.60;;;;;;5090921;28;20472;-71
2022/08/11 06:51:53;;;;;;;4.53;0.85;;;28.20;30.60;;;;;;5085619;28;20113;-71
2022/08/11 06:54:21;;;;;;;6.18;0.63;;;28.20;30.60;;;;;;5092712;28;20051;-70
2022/08/11 07:02:27;;;;;;;3.72;1.48;;;28.30;30.40;;;;;;5072788;28;20044;-70
2022/08/11 07:04:59;;;;;;;3.33;0.40;;;28.30;30.30;;;;;;5087630;28;20036;-71
2022/08/11 07:16:28;;;;;;;10.52;0.57;;;28.40;30.20;;;;;;5010830;28;20041;-71
2022/08/11 07:30:10;;;;;;;3.00;0.75;;;28.70;29.90;;;;;;5021229;28;20495;-68
2022/08/11 07:32:44;;;;;;;7.88;0.60;;;28.70;29.70;;;;;;5021586;28;20065;-53
2022/08/11 07:35:16;;;;;;;8.48;0.63;;;28.80;29.70;;;;;;5020031;28;20134;-52
2022/08/11 07:37:49;;;;;;;1.13;0.43;;;28.80;29.70;;;;;;5023031;28;20045;-58
2022/08/11 07:40:21;;;;;;;4.38;0.30;;;28.90;29.70;;;;;;5017240;28;20548;-55
2022/08/11 07:42:50;;;;;;;6.28;1.23;;;29.00;29.70;;;;;;5021258;28;20521;-51
2022/08/11 07:53:36;;;;;;;6.10;0.40;;;29.20;29.60;;;;;;5087870;28;20120;-53
2022/08/11 07:56:05;;;;;;;4.30;0.20;;;29.30;29.60;;;;;;5087607;28;20504;-56
2022/08/11 08:18:03;;;;;;;4.07;0.85;;;29.80;29.20;;;;;;5069037;28;20095;-57
2022/08/11 08:20:35;;;;;;;2.55;0.20;;;29.90;29.20;;;;;;5093346;28;20055;-54
2022/08/11 08:23:04;;;;;;;2.55;0.32;;;30.00;29.10;;;;;;5087276;28;20064;-56
2022/08/11 08:25:33;;;;;;;2.95;0.68;;;30.10;29.10;;;;;;5087895;28;20051;-56
2022/08/11 08:28:03;;;;;;;6.28;0.50;;;30.10;29.10;;;;;;5095108;28;20040;-60
2022/08/11 08:30:49;;;;;;;1.75;0.10;;;30.20;29.00;;;;;;5086326;28;20065;-57
2022/08/11 08:33:21;;;;;;;1.80;0.20;;;30.30;28.90;;;;;;5068921;28;20068;-57
2022/08/11 08:36:09;;;;;;;11.20;0.70;;;30.40;28.90;;;;;;5087923;28;20040;-57
2022/08/11 08:38:40;;;;;;;1.40;0.32;;;30.40;28.90;;;;;;5084339;28;20047;-63
2022/08/11 08:41:08;;;;;;;6.70;0.98;;;30.40;28.90;;;;;;5086937;28;20036;-53
2022/08/11 08:43:36;;;;;;;6.43;1.50;;;30.40;28.90;;;;;;5088460;28;20046;-61
2022/08/11 08:46:08;;;;;;;4.05;0.38;;;30.50;28.90;;;;;;5091620;28;20526;-63
2022/08/11 08:48:36;;;;;;;3.30;0.70;;;30.60;28.80;;;;;;5090718;28;20048;-62
2022/08/11 08:53:55;;;;;;;9.20;0.20;;;30.60;28.70;;;;;;5103287;28;20062;-67
2022/08/11 08:56:27;;;;;;;5.50;0.40;;;30.70;28.70;;;;;;5090242;28;20038;-48
2022/08/11 08:58:57;;;;;;;1.85;0.30;;;30.70;28.70;;;;;;5090571;28;20119;-52
2022/08/11 09:01:25;;;;;;;1.40;0.30;;;30.70;28.70;;;;;;5090700;28;20038;-53
2022/08/11 09:03:52;;;;;;;2.50;0.30;;;30.70;28.60;;;;;;5089986;28;20561;-51
2022/08/11 09:06:21;;;;;;;1.50;0.28;;;30.80;28.60;;;;;;5090492;28;20044;-48
2022/08/11 09:08:48;;;;;;;1.83;0.20;;;30.80;28.60;;;;;;5090562;28;20039;-51
2022/08/11 09:14:03;;;;;;;4.05;0.10;;;30.90;28.60;;;;;;5078659;28;20388;-53
2022/08/11 09:16:30;;;;;;;1.85;0.43;;;30.90;28.60;;;;;;5069927;28;20035;-56
2022/08/11 09:19:00;;;;;;;2.50;0.35;;;31.00;28.60;;;;;;5090020;28;20436;-61
2022/08/11 09:21:27;;;;;;;0.52;0.15;;;31.00;28.60;;;;;;5090007;28;20545;-61
2022/08/11 09:27:02;;;;;;;2.97;0.10;;;31.10;28.50;;;;;;5089803;28;20048;-61
2022/08/11 09:29:31;;;;;;;0.73;0.22;;;31.20;28.50;;;;;;5089897;28;20565;-60
2022/08/11 09:31:59;;;;;;;2.80;0.47;;;31.20;28.40;;;;;;5089542;28;20557;-60
2022/08/11 09:34:27;;;;;;;3.60;0.38;;;31.30;28.30;;;;;;5089472;28;20424;-61
2022/08/11 09:44:45;;;;;;;3.05;0.10;;;31.40;28.70;;;;;;5075789;28;20324;-64
2022/08/11 09:45:17;;;;;;;4.07;0.10;;;31.40;28.20;;;;;;5090121;28;20036;-59
2022/08/11 09:47:44;;;;;;;6.78;0.20;;;31.50;28.10;;;;;;5089872;28;20036;-64
2022/08/11 09:50:14;;;;;;;1.15;0.17;;;31.50;27.90;;;;;;5084045;28;20506;-66
2022/08/11 09:52:42;;;;;;;0.63;0.10;;;31.50;27.80;;;;;;5090410;28;20040;-65
2022/08/11 09:55:10;;;;;;;7.50;0.20;;;31.60;27.80;;;;;;5090933;28;20165;-69
2022/08/11 10:00:30;;;;;;;2.60;0.10;;;31.70;27.50;;;;;;5089703;28;20032;-68
2022/08/11 10:03:01;;;;;;;3.90;0.10;;;31.70;27.50;;;;;;5092304;28;20036;-70
2022/08/11 10:08:18;;;;;;;2.20;0.10;;;31.80;27.30;;;;;;5073794;28;20126;-64
2022/08/11 10:10:47;;;;;;;1.27;0.10;;;31.90;27.30;;;;;;5093248;28;20048;-64
2022/08/11 10:13:19;;;;;;;1.75;0.20;;;31.90;27.20;;;;;;5083333;28;20044;-65
2022/08/11 10:15:49;;;;;;;1.92;0.20;;;32.00;27.10;;;;;;5072611;28;20047;-55
2022/08/11 10:21:10;;;;;;;5.82;0.10;;;32.00;26.80;;;;;;5084636;28;20052;-56
2022/08/11 10:34:39;;;;;;;;;;;32.30;26.80;;;;;;5088566;28;20146;-58
2022/08/11 10:37:11;;;;;;;1.40;0.10;;;32.30;26.80;;;;;;5097744;28;19923;-61
2022/08/11 10:39:40;;;;;;;1.42;0.20;;;32.40;26.90;;;;;;5093120;28;20560;-56
2022/08/11 10:44:56;;;;;;;0.90;0.20;;;32.50;26.70;;;;;;5071214;28;20085;-57
2022/08/11 10:47:35;;;;;;;3.83;0.20;;;32.60;26.60;;;;;;5095260;28;20083;-57
2022/08/11 11:01:09;;;;;;;2.63;0.98;;;32.80;26.80;;;;;;5084213;28;20101;-53
2022/08/11 11:03:37;;;;;;;0.82;0.40;;;32.80;26.60;;;;;;5088190;28;20427;-52
2022/08/11 11:06:09;;;;;;;0.88;0.50;;;32.80;26.50;;;;;;5086965;28;20170;-59
2022/08/11 11:08:54;;;;;;;9.27;0.20;;;32.90;26.70;;;;;;5074682;28;20040;-63
2022/08/11 11:17:54;;;;;;;6.03;0.20;;;32.90;26.80;;;;;;5088057;28;20048;-64
2022/08/11 11:19:47;;;;;;;0.22;0.20;;;33.00;26.90;;;;;;5087806;28;20036;-63
2022/08/11 11:25:09;;;;;;;1.05;0.30;;;33.10;26.90;;;;;;5087886;28;20416;-66
2022/08/11 11:27:48;;;;;;;1.80;0.22;;;33.10;26.90;;;;;;5088063;28;20072;-65
2022/08/11 11:30:16;;;;;;;1.17;0.20;;;33.20;27.10;;;;;;5082616;28;20075;-66
2022/08/11 11:32:55;;;;;;;1.27;0.10;;;33.20;27.20;;;;;;5092834;28;20032;-66
2022/08/11 11:35:30;;;;;;;1.85;0.13;;;33.20;27.40;;;;;;5088080;28;20075;-66
2022/08/11 11:37:58;;;;;;;1.08;0.25;;;33.30;27.60;;;;;;5088114;28;20548;-66
2022/08/11 11:40:27;;;;;;;1.95;0.20;;;33.30;27.50;;;;;;5087673;28;20028;-65
2022/08/11 11:42:57;;;;;;;5.53;1.00;;;33.40;27.50;;;;;;5088413;28;20048;-64
2022/08/11 11:45:25;;;;;;;1.73;0.30;;;33.40;27.50;;;;;;5067756;28;20058;-62
2022/08/11 11:47:55;;;;;;;2.20;0.30;;;33.40;27.60;;;;;;5087171;28;20036;-63
2022/08/11 11:50:25;;;;;;;2.33;0.10;;;33.50;27.50;;;;;;5087024;28;20040;-63
2022/08/11 11:52:54;;;;;;;2.90;1.45;;;33.50;27.30;;;;;;5082165;28;20134;-62
2022/08/11 11:55:23;;;;;;;1.90;0.30;;;33.50;27.10;;;;;;5081757;28;20450;-62
2022/08/11 12:03:25;;;;;;;1.35;0.10;;;33.70;26.70;;;;;;5087511;28;20069;-60
2022/08/11 12:05:53;;;;;;;2.90;0.52;;;33.70;26.70;;;;;;5087451;28;20044;-52
2022/08/11 12:08:22;;;;;;;5.88;0.57;;;33.80;26.80;;;;;;5087457;28;20032;-50
2022/08/11 12:13:39;;;;;;;1.10;0.10;;;33.80;26.80;;;;;;5086661;28;20736;-55
2022/08/11 12:13:39;;;;;;;1.80;0.47;;;33.80;26.70;;;;;;5086895;28;20039;-59
2022/08/11 12:16:09;;;;;;;2.53;0.10;;;33.80;26.60;;;;;;5087039;28;20040;-52
2022/08/11 12:18:38;;;;;;;1.75;0.20;;;33.90;26.50;;;;;;5088531;28;20151;-59
2022/08/11 12:21:07;;;;;;;3.28;0.20;;;33.90;26.60;;;;;;5099714;28;20400;-52
2022/08/11 12:29:25;;;;;;;7.63;0.20;;;34.10;26.40;;;;;;5090157;28;20124;-59
2022/08/11 12:31:54;;;;;;;6.05;0.30;;;34.10;26.40;;;;;;5090822;28;20040;-53
2022/08/11 12:34:25;;;;;;;3.17;0.10;;;34.20;26.40;;;;;;5072940;28;20055;-59
2022/08/11 12:36:57;;;;;;;2.22;0.10;;;34.20;26.30;;;;;;5087870;28;20531;-55
2022/08/11 12:53:23;;;;;;;32.97;8.65;;;34.40;26.50;;;;;;5090094;28;20519;-48
2022/08/11 12:58:40;;;;;;;10.45;2.45;;;34.50;26.60;;;;;;5092608;28;20061;-55
2022/08/11 13:06:39;;;;;;;5.97;0.95;;;34.60;26.50;;;;;;5090171;28;20591;-62
2022/08/11 13:09:07;;;;;;;10.32;0.75;;;34.60;26.30;;;;;;5095540;28;20036;-59
2022/08/11 13:14:20;;;;;;;;;;;34.80;26.40;;;;;;5089435;28;20648;-56
2022/08/11 13:19:31;;;;;;;0.60;0.10;;;34.80;26.60;;;;;;5076716;28;20051;-51
2022/08/11 13:22:01;;;;;;;2.50;0.30;;;34.80;26.90;;;;;;5089320;28;20046;-50
2022/08/11 13:24:28;;;;;;;0.82;0.30;;;34.90;27.90;;;;;;5090093;28;20042;-50
2022/08/11 13:26:56;;;;;;;7.15;0.20;;;34.90;27.80;;;;;;5090043;28;20040;-55
2022/08/11 13:29:25;;;;;;;3.75;0.20;;;35.00;28.00;;;;;;5089552;28;21492;-48
2022/08/11 13:31:54;;;;;;;0.82;0.30;;;35.10;28.00;;;;;;5093594;28;20036;-45
2022/08/11 13:34:25;;;;;;;4.43;0.40;;;35.10;27.90;;;;;;5089540;28;20123;-46
2022/08/11 13:36:54;;;;;;;1.30;0.10;;;35.10;27.60;;;;;;5089834;28;20059;-48
2022/08/11 13:39:25;;;;;;;1.00;0.10;;;35.10;27.40;;;;;;5097614;28;20126;-47
2022/08/11 13:41:55;;;;;;;0.63;0.20;;;35.20;27.40;;;;;;5092490;28;20040;-50
2022/08/11 13:44:25;;;;;;;5.95;0.30;;;35.20;27.30;;;;;;5089908;28;20040;-49
2022/08/11 13:46:56;;;;;;;0.20;0.20;;;35.20;27.30;;;;;;5073529;28;20039;-54
2022/08/11 13:49:24;;;;;;;3.30;0.20;;;35.30;27.20;;;;;;5088592;28;20047;-51
2022/08/11 13:51:54;;;;;;;0.20;0.20;;;35.30;27.20;;;;;;5088780;28;20036;-52
2022/08/11 13:54:25;;;;;;;0.52;0.20;;;35.30;27.00;;;;;;5090145;28;20483;-50
2022/08/11 13:56:54;;;;;;;0.82;0.22;;;35.30;26.90;;;;;;5092056;28;20047;-51
2022/08/11 13:59:22;;;;;;;2.38;0.20;;;35.30;26.80;;;;;;5095817;28;20032;-48
2022/08/11 14:01:54;;;;;;;4.95;0.30;;;35.40;26.70;;;;;;5090806;28;20058;-50
2022/08/11 14:04:28;;;;;;;0.22;0.20;;;35.50;26.60;;;;;;5088659;28;20040;-52
2022/08/11 14:06:59;;;;;;;3.55;0.10;;;35.50;26.50;;;;;;5086792;28;20086;-49
2022/08/11 14:09:32;;;;;;;0.15;0.10;;;35.50;26.40;;;;;;5071094;28;20048;-53
2022/08/11 14:14:53;;;;;;;2.95;0.20;;;35.60;26.20;;;;;;5088265;28;20658;-53
2022/08/11 14:17:21;;;;;;;2.30;0.10;;;35.60;26.70;;;;;;5089043;28;20043;-50
2022/08/11 14:19:52;;;;;;;1.95;0.20;;;35.60;26.10;;;;;;5085772;28;20040;-50
2022/08/11 14:22:21;;;;;;;0.17;0.10;;;35.70;26.10;;;;;;5089036;28;20040;-52
2022/08/11 14:24:49;;;;;;;3.03;0.20;;;35.70;26.00;;;;;;5090830;28;20055;-49
2022/08/11 14:27:17;;;;;;;0.22;0.20;;;35.70;25.90;;;;;;5096343;28;20048;-52
2022/08/11 14:29:46;;;;;;;1.95;0.30;;;35.80;25.80;;;;;;5088843;28;20040;-51
2022/08/11 14:32:14;;;;;;;6.13;1.17;;;35.80;25.70;;;;;;5063100;28;20118;-49
2022/08/11 14:34:43;;;;;;;1.52;0.32;;;35.80;25.70;;;;;;5088388;28;20039;-52
2022/08/11 14:37:14;;;;;;;0.22;0.20;;;35.90;25.70;;;;;;5099132;28;20050;-51
2022/08/11 14:39:44;;;;;;;0.20;0.20;;;35.90;25.70;;;;;;5093017;28;20139;-52
2022/08/11 14:48:00;;;;;;;4.13;1.00;;;36.00;25.60;;;;;;5088001;28;20048;-51
2022/08/11 14:50:29;;;;;;;3.83;0.52;;;36.00;25.60;;;;;;5088402;28;20508;-55
2022/08/11 14:52:59;;;;;;;3.30;0.47;;;36.00;25.50;;;;;;5098928;28;20039;-55
2022/08/11 14:58:18;;;;;;;3.60;0.30;;;36.10;25.50;;;;;;5088470;28;20032;-50
2022/08/11 15:00:46;;;;;;;0.40;0.25;;;36.10;25.50;;;;;;5096077;28;20995;-51
2022/08/11 15:03:14;;;;;;;1.42;0.30;;;36.10;25.50;;;;;;5087673;28;20044;-49
2022/08/11 15:05:47;;;;;;;0.90;0.30;;;36.10;25.50;;;;;;5087994;28;20047;-51
2022/08/11 15:08:16;;;;;;;3.25;0.20;;;36.10;25.40;;;;;;5074342;28;20046;-52
2022/08/11 15:10:44;;;;;;;0.47;0.20;;;36.10;25.40;;;;;;5069368;28;20404;-55
2022/08/11 15:13:11;;;;;;;1.48;0.20;;;36.20;25.40;;;;;;5088195;28;20101;-54
2022/08/11 15:18:26;;;;;;;0.82;0.30;;;36.20;25.20;;;;;;5090113;28;20063;-53
2022/08/11 15:37:43;;;;;;;1.25;0.73;;;36.40;25.10;;;;;;5087618;28;20047;-52
2022/08/11 15:46:22;;;;;;;4.03;0.20;;;36.40;25.00;;;;;;5020692;28;20037;-50
2022/08/11 15:48:57;;;;;;;0.77;0.38;;;36.50;25.00;;;;;;5022514;28;20124;-49
2022/08/11 15:51:34;;;;;;;0.85;0.85;;;36.50;24.90;;;;;;5019655;28;20809;-51
2022/08/11 15:54:06;;;;;;;4.97;0.35;;;36.50;24.90;;;;;;5019669;28;20589;-51
2022/08/11 15:56:37;;;;;;;0.52;0.30;;;36.60;25.00;;;;;;5013525;28;20045;-51
2022/08/11 16:04:42;;;;;;;1.05;0.20;;;36.70;24.90;;;;;;5013402;28;20084;-52
2022/08/11 16:07:13;;;;;;;2.17;0.38;;;36.70;24.80;;;;;;5016401;28;20682;-52
2022/08/11 16:09:43;;;;;;;0.22;0.22;;;36.70;24.70;;;;;;5014503;28;20504;-53
2022/08/11 16:12:14;;;;;;;1.33;0.30;;;36.70;24.60;;;;;;5022208;28;20038;-52
2022/08/11 16:17:34;;;;;;;1.95;0.20;;;36.70;24.50;;;;;;5063479;28;20112;-55
2022/08/11 16:20:03;;;;;;;1.40;0.38;;;36.70;24.60;;;;;;5090469;28;20904;-56
2022/08/11 16:22:38;;;;;;;4.18;0.50;;;36.80;24.70;;;;;;5090855;28;20603;-52
2022/08/11 16:25:08;;;;;;;0.65;0.20;;;36.90;25.20;;;;;;5089237;28;20138;-56
2022/08/11 16:27:38;;;;;;;4.75;0.20;;;36.90;24.70;;;;;;5092509;28;20795;-52
2022/08/11 16:30:07;;;;;;;0.75;0.30;;;37.00;24.60;;;;;;5090426;28;20047;-53
2022/08/11 16:32:38;;;;;;;3.70;0.45;;;37.00;24.60;;;;;;5072775;28;20953;-49
2022/08/11 16:40:43;;;;;;;6.90;0.52;;;37.00;24.80;;;;;;5103795;28;20103;-60
2022/08/11 16:49:02;;;;;;;0.30;0.20;;;37.00;24.40;;;;;;5099008;28;20054;-58
2022/08/11 16:51:31;;;;;;;3.90;0.20;;;37.00;24.30;;;;;;5091105;28;20046;-56
2022/08/11 16:53:59;;;;;;;1.52;0.40;;;37.00;24.20;;;;;;5097165;28;20070;-59
2022/08/11 16:56:30;;;;;;;0.80;0.30;;;37.00;24.20;;;;;;5076227;28;20505;-59
2022/08/11 16:59:14;;;;;;;11.10;0.65;;;37.00;24.10;;;;;;5093594;28;20067;-58
2022/08/11 17:01:43;;;;;;;0.50;0.43;;;37.00;24.30;;;;;;5088943;28;20040;-52
2022/08/11 17:13:09;;;;;;;0.28;0.28;;;37.10;24.60;;;;;;5006706;28;20046;-48
2022/08/11 17:21:05;;;;;;;0.30;0.30;;;37.30;24.60;;;;;;5003312;28;20594;-50
2022/08/11 17:23:46;;;;;;;0.30;0.30;;;37.30;24.60;;;;;;5007779;28;20054;-54
2022/08/11 17:26:17;;;;;;;1.40;0.82;;;37.40;24.70;;;;;;5001582;28;20064;-53
2022/08/11 17:28:48;;;;;;;1.65;0.30;;;37.40;24.70;;;;;;4997855;28;20699;-58
2022/08/11 17:36:50;;;;;;;1.80;0.20;;;37.50;24.50;;;;;;5007487;28;20058;-58
2022/08/11 17:39:19;;;;;;;4.43;1.08;;;37.50;24.40;;;;;;4987320;28;20047;-54
2022/08/11 17:50:05;;;;;;;1.85;0.30;;;37.60;24.80;;;;;;5096330;28;20047;-48
2022/08/11 18:00:53;;;;;;;5.68;0.73;;;37.70;24.10;;;;;;5085708;28;20052;-63
2022/08/11 18:03:32;;;;;;;6.53;1.55;;;37.70;23.70;;;;;;5086313;28;20496;-56
2022/08/11 18:06:01;;;;;;;3.38;0.55;;;37.70;23.60;;;;;;5087178;28;20060;-56
